createdAt,value
2023-01-06T00:00:54.711Z,5.78
2023-01-06T00:01:54.673Z,5.56
2023-01-06T00:02:54.666Z,5.94
2023-01-06T00:03:54.672Z,5.94
2023-01-06T00:04:54.744Z,5.78
2023-01-06T00:05:54.662Z,5.67
2023-01-06T00:06:54.666Z,5.67
2023-01-06T00:07:54.665Z,5.67
2023-01-06T00:08:54.789Z,5.39
2023-01-06T00:09:54.674Z,5.67
2023-01-06T00:10:54.670Z,5.67
2023-01-06T00:11:54.667Z,5.67
2023-01-06T00:12:54.670Z,5.78
2023-01-06T00:13:54.663Z,5.78
2023-01-06T00:14:54.658Z,5.94
2023-01-06T00:15:54.774Z,5.78
2023-01-06T00:16:54.661Z,5.78
2023-01-06T00:17:54.665Z,5.78
2023-01-06T00:18:54.672Z,5.78
2023-01-06T00:19:54.683Z,5.78
2023-01-06T00:20:54.675Z,5.56
2023-01-06T00:21:54.682Z,5.67
2023-01-06T00:22:54.694Z,5.22
2023-01-06T00:23:54.701Z,5.56
2023-01-06T00:24:54.836Z,5.56
2023-01-06T00:25:54.677Z,5.39
2023-01-06T00:26:54.682Z,5.56
2023-01-06T00:27:54.681Z,5.39
2023-01-06T00:28:54.689Z,5.39
2023-01-06T00:29:54.681Z,5.39
2023-01-06T00:30:54.767Z,5.56
2023-01-06T00:31:54.692Z,5.22
2023-01-06T00:32:54.678Z,5.67
2023-01-06T00:33:54.694Z,5.11
2023-01-06T00:34:54.696Z,5.56
2023-01-06T00:35:54.685Z,5.56
2023-01-06T00:36:54.713Z,5.67
2023-01-06T00:37:54.688Z,5.56
2023-01-06T00:38:54.688Z,5.78
2023-01-06T00:39:54.696Z,5.78
2023-01-06T00:40:54.837Z,5.78
2023-01-06T00:41:54.698Z,5.67
2023-01-06T00:42:54.700Z,5.39
2023-01-06T00:43:54.704Z,5.39
2023-01-06T00:44:54.686Z,5.56
2023-01-06T00:45:54.729Z,5.78
2023-01-06T00:46:54.703Z,5.67
2023-01-06T00:47:54.701Z,5.39
2023-01-06T00:49:04.476Z,5.22
2023-01-06T00:49:54.709Z,5.56
2023-01-06T00:50:54.705Z,5.39
2023-01-06T00:51:54.702Z,5.56
2023-01-06T00:52:54.699Z,5.56
2023-01-06T00:53:54.709Z,5.78
2023-01-06T00:54:54.721Z,5.67
2023-01-06T00:55:54.728Z,5.78
2023-01-06T00:56:54.827Z,5.56
2023-01-06T00:57:54.723Z,5.67
2023-01-06T00:58:54.739Z,5.78
2023-01-06T00:59:54.704Z,5.78
2023-01-06T01:00:54.714Z,5.67
2023-01-06T01:01:54.836Z,5.67
2023-01-06T01:02:54.763Z,5.67
2023-01-06T01:03:54.698Z,5.56
2023-01-06T01:04:54.709Z,5.39
2023-01-06T01:05:54.711Z,5.39
2023-01-06T01:06:54.757Z,5.22
2023-01-06T01:07:54.716Z,5.56
2023-01-06T01:08:54.730Z,5.22
2023-01-06T01:09:54.716Z,4.94
2023-01-06T01:10:54.718Z,5.11
2023-01-06T01:11:54.742Z,4.94
2023-01-06T01:12:54.851Z,5.11
2023-01-06T01:13:54.777Z,4.94
2023-01-06T01:14:54.720Z,4.94
2023-01-06T01:15:54.816Z,5.22
2023-01-06T01:16:54.725Z,5.11
2023-01-06T01:17:54.722Z,5.11
2023-01-06T01:18:54.736Z,5.11
2023-01-06T01:19:54.734Z,4.94
2023-01-06T01:20:54.729Z,5.11
2023-01-06T01:21:54.719Z,4.94
2023-01-06T01:22:54.726Z,4.94
2023-01-06T01:23:54.738Z,4.83
2023-01-06T01:24:54.748Z,4.94
2023-01-06T01:25:54.748Z,4.94
2023-01-06T01:26:54.733Z,4.94
2023-01-06T01:27:54.737Z,5.11
2023-01-06T01:28:54.847Z,4.67
2023-01-06T01:29:54.723Z,4.94
2023-01-06T01:30:54.740Z,4.83
2023-01-06T01:31:54.731Z,4.94
2023-01-06T01:32:54.721Z,4.94
2023-01-06T01:33:54.737Z,4.83
2023-01-06T01:34:54.745Z,4.83
2023-01-06T01:35:54.726Z,4.39
2023-01-06T01:36:54.715Z,4.83
2023-01-06T01:37:54.732Z,4.94
2023-01-06T01:38:54.734Z,4.5
2023-01-06T01:39:54.733Z,4.83
2023-01-06T01:40:54.744Z,4.94
2023-01-06T01:41:54.740Z,4.83
2023-01-06T01:42:54.737Z,4.67
2023-01-06T01:43:54.745Z,4.94
2023-01-06T01:44:54.856Z,4.94
2023-01-06T01:45:54.801Z,4.94
2023-01-06T01:46:54.720Z,4.94
2023-01-06T01:47:54.746Z,5.39
2023-01-06T01:48:54.726Z,5.22
2023-01-06T01:49:54.737Z,5.22
2023-01-06T01:50:54.737Z,5.39
2023-01-06T01:51:54.745Z,5.39
2023-01-06T01:52:54.747Z,5.22
2023-01-06T01:53:54.736Z,4.94
2023-01-06T01:54:54.750Z,4.94
2023-01-06T01:55:54.766Z,4.94
2023-01-06T01:56:54.743Z,4.94
2023-01-06T01:57:54.747Z,4.94
2023-01-06T01:58:54.747Z,4.5
2023-01-06T01:59:54.743Z,4.11
2023-01-06T02:00:54.850Z,4.11
2023-01-06T02:01:54.880Z,4.11
2023-01-06T02:02:54.826Z,4.39
2023-01-06T02:03:54.750Z,4.39
2023-01-06T02:04:54.740Z,4.5
2023-01-06T02:05:54.758Z,4.5
2023-01-06T02:06:54.750Z,4.5
2023-01-06T02:07:54.743Z,4.5
2023-01-06T02:08:54.741Z,4.11
2023-01-06T02:09:54.744Z,4.83
2023-01-06T02:10:54.739Z,4.83
2023-01-06T02:11:54.754Z,4.5
2023-01-06T02:12:54.770Z,4.5
2023-01-06T02:13:54.758Z,4.5
2023-01-06T02:14:54.744Z,4.5
2023-01-06T02:15:54.844Z,4.5
2023-01-06T02:16:54.853Z,4.67
2023-01-06T02:17:54.753Z,4.5
2023-01-06T02:18:54.757Z,4.22
2023-01-06T02:19:54.755Z,4.39
2023-01-06T02:20:54.743Z,4.22
2023-01-06T02:21:54.752Z,4.67
2023-01-06T02:22:54.757Z,4.5
2023-01-06T02:23:54.791Z,4.5
2023-01-06T02:24:54.756Z,4.22
2023-01-06T02:25:54.759Z,4.39
2023-01-06T02:26:54.760Z,4.39
2023-01-06T02:27:54.757Z,4.5
2023-01-06T02:28:54.770Z,4.5
2023-01-06T02:29:54.772Z,4.5
2023-01-06T02:30:54.787Z,4.39
2023-01-06T02:31:54.766Z,4.22
2023-01-06T02:32:54.892Z,4.22
2023-01-06T02:33:54.774Z,4.33
2023-01-06T02:34:54.777Z,4.39
2023-01-06T02:35:54.773Z,4.39
2023-01-06T02:36:54.770Z,4.11
2023-01-06T02:37:54.782Z,3.78
2023-01-06T02:38:54.774Z,3.94
2023-01-06T02:39:54.788Z,3.78
2023-01-06T02:40:54.772Z,3.56
2023-01-06T02:41:54.779Z,3.28
2023-01-06T02:42:54.772Z,3.39
2023-01-06T02:43:54.774Z,3.28
2023-01-06T02:44:54.776Z,3.11
2023-01-06T02:45:54.782Z,3.56
2023-01-06T02:46:54.776Z,3.94
2023-01-06T02:47:54.800Z,3.67
2023-01-06T02:48:54.923Z,3.67
2023-01-06T02:49:54.796Z,3.78
2023-01-06T02:50:54.822Z,3.67
2023-01-06T02:51:54.802Z,3.67
2023-01-06T02:52:54.791Z,3.28
2023-01-06T02:53:54.788Z,3.28
2023-01-06T02:54:54.782Z,3.56
2023-01-06T02:55:54.795Z,3.56
2023-01-06T02:56:54.797Z,3.67
2023-01-06T02:57:54.824Z,3.39
2023-01-06T02:58:54.810Z,3.39
2023-01-06T02:59:54.801Z,3.28
2023-01-06T03:00:54.799Z,3.28
2023-01-06T03:01:54.968Z,3
2023-01-06T03:02:54.815Z,3.28
2023-01-06T03:03:54.810Z,3.28
2023-01-06T03:04:54.981Z,2.83
2023-01-06T03:05:54.821Z,2.72
2023-01-06T03:06:54.800Z,3.11
2023-01-06T03:07:54.811Z,3.28
2023-01-06T03:08:54.813Z,3.28
2023-01-06T03:09:54.852Z,3.28
2023-01-06T03:10:54.827Z,3.56
2023-01-06T03:11:54.820Z,3.56
2023-01-06T03:12:54.879Z,3.56
2023-01-06T03:13:54.828Z,3.56
2023-01-06T03:14:54.827Z,3.39
2023-01-06T03:15:54.852Z,3.67
2023-01-06T03:16:54.844Z,3.28
2023-01-06T03:17:54.844Z,3.39
2023-01-06T03:18:54.823Z,3.39
2023-01-06T03:19:54.829Z,3.11
2023-01-06T03:20:54.966Z,3.28
2023-01-06T03:21:54.830Z,3
2023-01-06T03:22:54.828Z,3
2023-01-06T03:23:54.822Z,2.83
2023-01-06T03:24:54.841Z,2.83
2023-01-06T03:25:54.832Z,3.11
2023-01-06T03:26:54.834Z,3.11
2023-01-06T03:27:54.836Z,3.11
2023-01-06T03:28:54.846Z,3
2023-01-06T03:29:54.850Z,3
2023-01-06T03:30:54.837Z,3
2023-01-06T03:31:54.824Z,3.28
2023-01-06T03:32:54.835Z,3.11
2023-01-06T03:33:54.838Z,3.28
2023-01-06T03:34:54.834Z,3
2023-01-06T03:35:54.838Z,3
2023-01-06T03:36:54.954Z,3.28
2023-01-06T03:37:54.841Z,3.11
2023-01-06T03:38:54.841Z,3.39
2023-01-06T03:39:54.863Z,3.39
2023-01-06T03:40:54.842Z,3.39
2023-01-06T03:41:54.851Z,3.28
2023-01-06T03:42:54.847Z,3.28
2023-01-06T03:43:54.841Z,3.28
2023-01-06T03:44:54.847Z,3.28
2023-01-06T03:45:54.879Z,3.28
2023-01-06T03:46:54.881Z,3
2023-01-06T03:47:54.866Z,3.28
2023-01-06T03:48:54.860Z,3.11
2023-01-06T03:49:54.872Z,3.39
2023-01-06T03:50:54.856Z,3.28
2023-01-06T03:51:55.584Z,3.11
2023-01-06T03:52:54.957Z,3
2023-01-06T03:53:54.854Z,3.11
2023-01-06T03:54:54.873Z,3.11
2023-01-06T03:55:54.865Z,3.28
2023-01-06T03:56:54.858Z,3
2023-01-06T03:57:54.851Z,3.28
2023-01-06T03:58:54.871Z,3.28
2023-01-06T03:59:54.880Z,3.28
2023-01-06T04:00:54.901Z,3.11
2023-01-06T04:01:54.965Z,3.28
2023-01-06T04:02:54.873Z,3.28
2023-01-06T04:03:54.942Z,2.56
2023-01-06T04:04:54.872Z,3.28
2023-01-06T04:05:54.872Z,3.11
2023-01-06T04:06:54.879Z,3.28
2023-01-06T04:07:54.855Z,3.28
2023-01-06T04:08:54.992Z,3
2023-01-06T04:09:54.888Z,2.72
2023-01-06T04:10:54.874Z,3
2023-01-06T04:11:54.887Z,3.56
2023-01-06T04:12:54.874Z,3.28
2023-01-06T04:13:54.884Z,3.28
2023-01-06T04:14:54.889Z,3.11
2023-01-06T04:15:54.925Z,2.72
2023-01-06T04:16:54.886Z,3.11
2023-01-06T04:17:54.881Z,3
2023-01-06T04:18:54.885Z,3
2023-01-06T04:19:54.876Z,2.72
2023-01-06T04:20:54.886Z,3
2023-01-06T04:21:54.877Z,2.83
2023-01-06T04:22:54.887Z,2.39
2023-01-06T04:23:54.886Z,2.72
2023-01-06T04:24:54.996Z,2.56
2023-01-06T04:25:54.892Z,2.72
2023-01-06T04:26:54.899Z,2.72
2023-01-06T04:27:54.886Z,2.83
2023-01-06T04:28:54.895Z,2.39
2023-01-06T04:29:54.894Z,2.56
2023-01-06T04:30:54.891Z,2.83
2023-01-06T04:31:54.974Z,3
2023-01-06T04:32:54.897Z,2.83
2023-01-06T04:33:54.919Z,3
2023-01-06T04:34:54.892Z,2.72
2023-01-06T04:35:54.915Z,2.83
2023-01-06T04:36:54.906Z,2.83
2023-01-06T04:37:54.926Z,2.28
2023-01-06T04:38:54.906Z,3
2023-01-06T04:39:54.903Z,2.83
2023-01-06T04:40:55.013Z,2.83
2023-01-06T04:41:54.923Z,3
2023-01-06T04:42:54.902Z,2.83
2023-01-06T04:43:57.205Z,2.83
2023-01-06T04:44:54.907Z,3
2023-01-06T04:45:54.951Z,2.39
2023-01-06T04:46:54.909Z,2.83
2023-01-06T04:47:54.919Z,2.83
2023-01-06T04:48:54.921Z,2.72
2023-01-06T04:49:54.915Z,2.83
2023-01-06T04:50:54.917Z,2.83
2023-01-06T04:51:54.919Z,2.72
2023-01-06T04:52:54.927Z,2.83
2023-01-06T04:53:54.935Z,2.83
2023-01-06T04:54:54.916Z,2.83
2023-01-06T04:55:54.939Z,2.72
2023-01-06T04:56:55.036Z,2.83
2023-01-06T04:57:54.934Z,2.72
2023-01-06T04:58:54.930Z,2.83
2023-01-06T04:59:54.924Z,2.72
2023-01-06T05:00:54.967Z,2.56
2023-01-06T05:01:54.979Z,2.56
2023-01-06T05:02:54.929Z,2.56
2023-01-06T05:03:54.969Z,2.72
2023-01-06T05:04:54.949Z,2.11
2023-01-06T05:05:54.934Z,2.72
2023-01-06T05:06:54.934Z,2.11
2023-01-06T05:07:54.942Z,2.56
2023-01-06T05:08:54.939Z,2.56
2023-01-06T05:09:54.934Z,2.56
2023-01-06T05:10:54.933Z,2.28
2023-01-06T05:11:54.948Z,2.56
2023-01-06T05:12:55.060Z,2.72
2023-01-06T05:13:54.946Z,2.72
2023-01-06T05:14:54.968Z,2.28
2023-01-06T05:15:54.948Z,2.39
2023-01-06T05:16:54.957Z,2.39
2023-01-06T05:17:54.986Z,2.72
2023-01-06T05:18:54.959Z,2.39
2023-01-06T05:19:54.940Z,2.28
2023-01-06T05:20:54.960Z,2.39
2023-01-06T05:21:54.956Z,2.11
2023-01-06T05:22:54.951Z,2.39
2023-01-06T05:23:54.954Z,2.56
2023-01-06T05:24:54.961Z,2.28
2023-01-06T05:25:54.972Z,2.11
2023-01-06T05:26:54.997Z,2.56
2023-01-06T05:27:54.975Z,2.56
2023-01-06T05:28:55.081Z,2.83
2023-01-06T05:29:54.964Z,2.72
2023-01-06T05:30:54.965Z,2.56
2023-01-06T05:31:55.054Z,2.39
2023-01-06T05:32:54.973Z,2.39
2023-01-06T05:33:54.980Z,2.83
2023-01-06T05:34:54.977Z,2.72
2023-01-06T05:35:54.989Z,2.72
2023-01-06T05:36:55.005Z,2.39
2023-01-06T05:37:54.973Z,2.28
2023-01-06T05:38:54.995Z,2
2023-01-06T05:39:54.982Z,2.39
2023-01-06T05:40:54.982Z,2.28
2023-01-06T05:41:54.998Z,2.39
2023-01-06T05:42:54.998Z,2.39
2023-01-06T05:43:54.981Z,2.28
2023-01-06T05:44:55.051Z,2.28
2023-01-06T05:45:55.054Z,2.39
2023-01-06T05:46:55.003Z,2.28
2023-01-06T05:47:54.995Z,2.39
2023-01-06T05:48:55.007Z,2.39
2023-01-06T05:49:54.986Z,2.39
2023-01-06T05:50:55.023Z,1.83
2023-01-06T05:51:54.998Z,2.39
2023-01-06T05:52:54.990Z,2.28
2023-01-06T05:53:55.009Z,2
2023-01-06T05:54:54.992Z,2.11
2023-01-06T05:55:54.998Z,2.11
2023-01-06T05:56:55.004Z,2.11
2023-01-06T05:57:55.003Z,2.39
2023-01-06T05:58:54.999Z,2.39
2023-01-06T05:59:54.996Z,2.28
2023-01-06T06:00:55.107Z,2.28
2023-01-06T06:01:55.048Z,2.28
2023-01-06T06:02:54.994Z,2.39
2023-01-06T06:03:55.112Z,2
2023-01-06T06:04:54.999Z,2.28
2023-01-06T06:05:55.003Z,2.28
2023-01-06T06:06:55.009Z,1.72
2023-01-06T06:07:55.022Z,2.11
2023-01-06T06:08:55.016Z,2.39
2023-01-06T06:09:55.004Z,2.39
2023-01-06T06:10:55.002Z,2.28
2023-01-06T06:11:55.023Z,2.28
2023-01-06T06:12:55.010Z,2.11
2023-01-06T06:13:55.003Z,2.28
2023-01-06T06:14:55.013Z,2.11
2023-01-06T06:15:55.028Z,2
2023-01-06T06:16:55.021Z,2.28
2023-01-06T06:17:55.011Z,2
2023-01-06T06:18:55.015Z,2
2023-01-06T06:19:55.008Z,2.11
2023-01-06T06:20:55.018Z,2
2023-01-06T06:21:55.008Z,2.28
2023-01-06T06:22:55.014Z,2.39
2023-01-06T06:23:55.025Z,2.11
2023-01-06T06:24:55.010Z,2
2023-01-06T06:25:55.027Z,2.11
2023-01-06T06:26:55.013Z,2
2023-01-06T06:27:55.008Z,2
2023-01-06T06:28:55.027Z,2.28
2023-01-06T06:29:55.039Z,2.11
2023-01-06T06:30:55.676Z,2
2023-01-06T06:31:55.016Z,2
2023-01-06T06:32:55.124Z,2
2023-01-06T06:33:55.019Z,1.83
2023-01-06T06:34:55.024Z,1.83
2023-01-06T06:35:55.029Z,2
2023-01-06T06:36:55.021Z,2
2023-01-06T06:37:55.021Z,1.83
2023-01-06T06:38:55.021Z,2.11
2023-01-06T06:39:55.015Z,1.83
2023-01-06T06:40:55.028Z,2
2023-01-06T06:41:55.045Z,1.83
2023-01-06T06:42:55.034Z,1.83
2023-01-06T06:43:55.024Z,1.83
2023-01-06T06:44:55.026Z,2.11
2023-01-06T06:45:55.128Z,1.83
2023-01-06T06:46:55.026Z,2
2023-01-06T06:47:55.034Z,2
2023-01-06T06:48:55.161Z,2
2023-01-06T06:49:55.039Z,1.83
2023-01-06T06:50:55.019Z,2
2023-01-06T06:51:55.599Z,2
2023-01-06T06:52:55.028Z,2.06
2023-01-06T06:53:55.020Z,2.11
2023-01-06T06:54:55.040Z,2
2023-01-06T06:55:55.035Z,1.83
2023-01-06T06:56:55.042Z,2
2023-01-06T06:57:55.026Z,1.89
2023-01-06T06:58:55.038Z,1.94
2023-01-06T06:59:55.027Z,2
2023-01-06T07:00:55.056Z,2.39
2023-01-06T07:01:55.177Z,1.83
2023-01-06T07:02:55.061Z,2.17
2023-01-06T07:03:55.034Z,2.33
2023-01-06T07:04:55.138Z,2
2023-01-06T07:05:55.021Z,2.28
2023-01-06T07:06:55.065Z,2.22
2023-01-06T07:07:55.032Z,1.94
2023-01-06T07:08:55.032Z,2.28
2023-01-06T07:09:55.029Z,2.17
2023-01-06T07:10:55.055Z,2.28
2023-01-06T07:11:55.032Z,2.39
2023-01-06T07:12:55.031Z,2.28
2023-01-06T07:13:55.042Z,2
2023-01-06T07:14:55.041Z,2.22
2023-01-06T07:15:55.072Z,2.39
2023-01-06T07:16:55.042Z,2.11
2023-01-06T07:17:55.044Z,1.89
2023-01-06T07:18:55.050Z,2.17
2023-01-06T07:19:55.046Z,2.17
2023-01-06T07:20:55.167Z,2
2023-01-06T07:21:55.040Z,2.17
2023-01-06T07:22:55.078Z,2.11
2023-01-06T07:23:55.060Z,2.17
2023-01-06T07:24:55.042Z,2.17
2023-01-06T07:25:55.052Z,2.22
2023-01-06T07:26:55.057Z,2.22
2023-01-06T07:27:55.051Z,1.61
2023-01-06T07:28:55.055Z,2.22
2023-01-06T07:29:55.078Z,1.83
2023-01-06T07:30:55.065Z,2.28
2023-01-06T07:31:55.067Z,2
2023-01-06T07:32:55.057Z,2.22
2023-01-06T07:33:55.055Z,2.22
2023-01-06T07:34:55.062Z,2.17
2023-01-06T07:35:55.063Z,2.17
2023-01-06T07:36:55.179Z,2.44
2023-01-06T07:37:56.950Z,2
2023-01-06T07:38:55.054Z,2.61
2023-01-06T07:39:55.061Z,2.44
2023-01-06T07:40:55.061Z,2.56
2023-01-06T07:41:55.065Z,2.28
2023-01-06T07:42:55.080Z,2.44
2023-01-06T07:43:55.088Z,2.44
2023-01-06T07:44:55.068Z,2.61
2023-01-06T07:45:55.185Z,2.72
2023-01-06T07:46:55.062Z,2.61
2023-01-06T07:47:55.062Z,2.67
2023-01-06T07:48:55.075Z,2.61
2023-01-06T07:49:55.073Z,2.72
2023-01-06T07:50:55.103Z,2.61
2023-01-06T07:51:55.073Z,2.61
2023-01-06T07:52:55.189Z,2.44
2023-01-06T07:53:55.077Z,2.61
2023-01-06T07:54:55.080Z,2.17
2023-01-06T07:55:55.081Z,2.61
2023-01-06T07:56:55.079Z,2.61
2023-01-06T07:57:55.124Z,2.61
2023-01-06T07:58:55.085Z,2.44
2023-01-06T07:59:55.087Z,2.61
2023-01-06T08:00:55.079Z,2.83
2023-01-06T08:01:55.204Z,2.44
2023-01-06T08:02:55.129Z,2.44
2023-01-06T08:03:55.077Z,2.61
2023-01-06T08:04:55.088Z,2.44
2023-01-06T08:05:55.078Z,2.28
2023-01-06T08:06:55.092Z,2.61
2023-01-06T08:07:55.087Z,2.61
2023-01-06T08:08:55.233Z,2.67
2023-01-06T08:09:55.075Z,2.61
2023-01-06T08:10:55.077Z,2.61
2023-01-06T08:11:55.085Z,2.56
2023-01-06T08:12:55.095Z,2.44
2023-01-06T08:13:55.093Z,2.61
2023-01-06T08:14:55.091Z,2.61
2023-01-06T08:15:55.159Z,2.44
2023-01-06T08:16:55.100Z,2.61
2023-01-06T08:17:55.090Z,2.72
2023-01-06T08:18:55.093Z,2.61
2023-01-06T08:19:55.088Z,2.44
2023-01-06T08:20:55.093Z,2.61
2023-01-06T08:21:55.100Z,2.61
2023-01-06T08:22:55.096Z,2.39
2023-01-06T08:23:55.111Z,2.72
2023-01-06T08:24:55.208Z,2.44
2023-01-06T08:25:55.093Z,2.61
2023-01-06T08:26:55.113Z,2.61
2023-01-06T08:27:55.119Z,2.89
2023-01-06T08:28:55.112Z,2.94
2023-01-06T08:29:55.092Z,3
2023-01-06T08:30:55.284Z,2.89
2023-01-06T08:32:05.696Z,2.72
2023-01-06T08:32:55.115Z,2.89
2023-01-06T08:33:55.107Z,3
2023-01-06T08:34:55.111Z,2.94
2023-01-06T08:35:55.115Z,3
2023-01-06T08:36:55.112Z,3.17
2023-01-06T08:37:55.124Z,3.33
2023-01-06T08:38:55.108Z,3.5
2023-01-06T08:39:55.133Z,3.33
2023-01-06T08:40:55.218Z,3.33
2023-01-06T08:41:55.119Z,3.56
2023-01-06T08:42:55.120Z,3.56
2023-01-06T08:43:55.119Z,3.39
2023-01-06T08:44:55.120Z,3.17
2023-01-06T08:45:55.118Z,3.56
2023-01-06T08:46:55.110Z,3.56
2023-01-06T08:47:55.117Z,3.56
2023-01-06T08:48:55.117Z,3.33
2023-01-06T08:49:55.117Z,3.72
2023-01-06T08:50:55.117Z,3.56
2023-01-06T08:51:55.120Z,3.56
2023-01-06T08:52:55.111Z,4
2023-01-06T08:53:55.111Z,3.83
2023-01-06T08:54:55.127Z,3.83
2023-01-06T08:55:55.128Z,3.72
2023-01-06T08:56:55.236Z,4
2023-01-06T08:57:55.314Z,4
2023-01-06T08:58:55.146Z,4.17
2023-01-06T08:59:55.120Z,4.28
2023-01-06T09:00:55.126Z,4.17
2023-01-06T09:01:55.241Z,4.17
2023-01-06T09:02:55.127Z,4.06
2023-01-06T09:03:55.137Z,4.17
2023-01-06T09:04:55.171Z,3.83
2023-01-06T09:05:55.135Z,3.83
2023-01-06T09:06:56.673Z,4.17
2023-01-06T09:07:55.135Z,4.28
2023-01-06T09:08:55.124Z,4.17
2023-01-06T09:09:55.120Z,4.44
2023-01-06T09:10:55.159Z,4.72
2023-01-06T09:11:55.140Z,4.72
2023-01-06T09:12:55.241Z,4.72
2023-01-06T09:13:55.128Z,4.72
2023-01-06T09:14:55.136Z,4.72
2023-01-06T09:15:55.152Z,4.72
2023-01-06T09:16:55.130Z,4.72
2023-01-06T09:17:55.138Z,4.72
2023-01-06T09:18:55.133Z,4.78
2023-01-06T09:19:55.147Z,4.44
2023-01-06T09:20:55.150Z,4.56
2023-01-06T09:21:55.143Z,4.72
2023-01-06T09:22:55.137Z,4.72
2023-01-06T09:23:55.214Z,4.56
2023-01-06T09:24:55.136Z,4.56
2023-01-06T09:25:55.149Z,4.28
2023-01-06T09:26:55.144Z,4.56
2023-01-06T09:27:55.134Z,4.56
2023-01-06T09:28:55.265Z,4.44
2023-01-06T09:29:55.154Z,4.72
2023-01-06T09:30:55.184Z,4.56
2023-01-06T09:31:55.157Z,4.44
2023-01-06T09:32:55.142Z,4.67
2023-01-06T09:33:55.147Z,4.44
2023-01-06T09:34:55.154Z,4.44
2023-01-06T09:35:55.180Z,4.56
2023-01-06T09:36:55.159Z,4.72
2023-01-06T09:37:55.169Z,4.44
2023-01-06T09:38:55.168Z,4.78
2023-01-06T09:39:55.151Z,4.56
2023-01-06T09:40:55.160Z,4.56
2023-01-06T09:41:55.156Z,4.56
2023-01-06T09:42:55.138Z,4.72
2023-01-06T09:43:55.161Z,4.44
2023-01-06T09:44:55.181Z,4.44
2023-01-06T09:45:55.162Z,4.28
2023-01-06T09:46:55.182Z,4.67
2023-01-06T09:47:55.173Z,4.39
2023-01-06T09:48:55.156Z,4.89
2023-01-06T09:49:55.153Z,5
2023-01-06T09:50:55.175Z,4.89
2023-01-06T09:51:55.159Z,4.94
2023-01-06T09:52:55.165Z,4.89
2023-01-06T09:53:55.195Z,5.17
2023-01-06T09:54:55.174Z,5.33
2023-01-06T09:55:55.163Z,5.17
2023-01-06T09:56:55.182Z,5
2023-01-06T09:57:56.487Z,5
2023-01-06T09:58:55.184Z,4.78
2023-01-06T09:59:55.169Z,5
2023-01-06T10:00:55.303Z,5
2023-01-06T10:01:55.283Z,4.72
2023-01-06T10:02:55.177Z,4.89
2023-01-06T10:03:55.206Z,4.89
2023-01-06T10:04:55.174Z,5.11
2023-01-06T10:05:55.171Z,5.17
2023-01-06T10:06:55.189Z,5.22
2023-01-06T10:07:55.177Z,5.17
2023-01-06T10:08:55.177Z,5.17
2023-01-06T10:09:55.182Z,5.61
2023-01-06T10:10:55.188Z,5.17
2023-01-06T10:11:55.201Z,5.22
2023-01-06T10:12:55.182Z,5.39
2023-01-06T10:13:55.181Z,5.39
2023-01-06T10:14:55.195Z,4.94
2023-01-06T10:15:55.275Z,4.94
2023-01-06T10:16:55.306Z,4.94
2023-01-06T10:17:55.186Z,5.22
2023-01-06T10:18:55.189Z,5.56
2023-01-06T10:19:55.198Z,5.39
2023-01-06T10:20:55.187Z,5.11
2023-01-06T10:21:55.191Z,4.94
2023-01-06T10:22:55.195Z,5.11
2023-01-06T10:23:55.204Z,4.83
2023-01-06T10:24:55.232Z,4.5
2023-01-06T10:25:55.202Z,4.5
2023-01-06T10:26:55.203Z,4.67
2023-01-06T10:27:55.216Z,4.94
2023-01-06T10:28:55.214Z,4.94
2023-01-06T10:29:55.203Z,4.83
2023-01-06T10:30:55.208Z,4.94
2023-01-06T10:31:55.212Z,4.83
2023-01-06T10:32:55.307Z,5.22
2023-01-06T10:33:55.204Z,4.94
2023-01-06T10:34:55.205Z,4.94
2023-01-06T10:35:55.205Z,4.83
2023-01-06T10:36:55.208Z,5.67
2023-01-06T10:37:55.213Z,5.78
2023-01-06T10:38:55.203Z,5.78
2023-01-06T10:39:55.201Z,5.56
2023-01-06T10:40:55.200Z,5.67
2023-01-06T10:41:55.200Z,5.11
2023-01-06T10:42:55.212Z,5.78
2023-01-06T10:43:55.207Z,5.94
2023-01-06T10:44:55.209Z,5.94
2023-01-06T10:45:55.201Z,5.94
2023-01-06T10:46:55.274Z,6.06
2023-01-06T10:47:55.207Z,5.94
2023-01-06T10:48:55.315Z,5.56
2023-01-06T10:49:55.206Z,4.94
2023-01-06T10:50:56.971Z,4.94
2023-01-06T10:51:55.202Z,5.22
2023-01-06T10:52:55.224Z,4.83
2023-01-06T10:53:55.213Z,4.67
2023-01-06T10:54:55.205Z,4.39
2023-01-06T10:55:55.215Z,4.5
2023-01-06T10:56:55.211Z,4.83
2023-01-06T10:57:55.213Z,5.22
2023-01-06T10:58:55.208Z,5.39
2023-01-06T10:59:55.210Z,5.39
2023-01-06T11:00:55.296Z,5.56
2023-01-06T11:01:55.349Z,5.67
2023-01-06T11:02:56.592Z,5.67
2023-01-06T11:03:55.210Z,5.67
2023-01-06T11:04:55.332Z,5.78
2023-01-06T11:05:55.223Z,5.67
2023-01-06T11:06:55.243Z,6.22
2023-01-06T11:07:55.267Z,6.22
2023-01-06T11:08:55.227Z,6.39
2023-01-06T11:09:55.218Z,6.67
2023-01-06T11:10:55.225Z,6.22
2023-01-06T11:11:55.229Z,6.22
2023-01-06T11:12:55.234Z,6.22
2023-01-06T11:13:55.233Z,5.78
2023-01-06T11:14:55.223Z,5.94
2023-01-06T11:15:55.272Z,5.78
2023-01-06T11:16:55.239Z,5.94
2023-01-06T11:17:55.241Z,6.22
2023-01-06T11:18:55.237Z,6.39
2023-01-06T11:19:55.233Z,6.67
2023-01-06T11:20:55.342Z,5.94
2023-01-06T11:21:55.232Z,6.22
2023-01-06T11:22:55.231Z,6.39
2023-01-06T11:23:55.227Z,6.22
2023-01-06T11:24:55.243Z,5.67
2023-01-06T11:25:55.239Z,5.67
2023-01-06T11:26:55.240Z,5.39
2023-01-06T11:27:55.230Z,5.78
2023-01-06T11:28:55.243Z,5.78
2023-01-06T11:29:55.236Z,6.06
2023-01-06T11:30:55.262Z,6.06
2023-01-06T11:31:55.245Z,5.94
2023-01-06T11:32:55.246Z,5.94
2023-01-06T11:33:55.285Z,5.78
2023-01-06T11:34:55.245Z,5.39
2023-01-06T11:35:55.253Z,5.56
2023-01-06T11:36:55.359Z,5.56
2023-01-06T11:37:55.243Z,5.39
2023-01-06T11:38:55.251Z,5.39
2023-01-06T11:39:55.827Z,5.22
2023-01-06T11:40:55.245Z,4.83
2023-01-06T11:41:55.236Z,4.67
2023-01-06T11:42:55.264Z,4.83
2023-01-06T11:43:55.246Z,5.11
2023-01-06T11:44:55.235Z,5.39
2023-01-06T11:45:55.273Z,5.56
2023-01-06T11:46:55.242Z,5.11
2023-01-06T11:47:55.252Z,4.83
2023-01-06T11:48:55.242Z,4.94
2023-01-06T11:49:55.243Z,5.22
2023-01-06T11:50:55.248Z,5.22
2023-01-06T11:51:55.239Z,5.56
2023-01-06T11:52:55.282Z,5.39
2023-01-06T11:53:55.252Z,5.78
2023-01-06T11:54:55.242Z,5.78
2023-01-06T11:55:55.257Z,5.67
2023-01-06T11:56:55.235Z,5.67
2023-01-06T11:57:55.253Z,5.39
2023-01-06T11:58:55.257Z,5.56
2023-01-06T11:59:55.253Z,4.94
2023-01-06T12:00:55.247Z,4.94
2023-01-06T12:01:55.299Z,4.94
2023-01-06T12:02:55.264Z,5.11
2023-01-06T12:03:55.240Z,4.94
2023-01-06T12:04:55.249Z,5.67
2023-01-06T12:05:55.256Z,5.39
2023-01-06T12:06:55.250Z,5.56
2023-01-06T12:07:55.251Z,5.22
2023-01-06T12:08:55.361Z,5.22
2023-01-06T12:09:55.257Z,5.11
2023-01-06T12:10:55.255Z,5.11
2023-01-06T12:11:55.243Z,4.94
2023-01-06T12:12:55.245Z,5.22
2023-01-06T12:14:10.855Z,5.22
2023-01-06T12:14:55.261Z,5.22
2023-01-06T12:15:55.260Z,5.22
2023-01-06T12:16:55.331Z,5.11
2023-01-06T12:17:55.259Z,5.67
2023-01-06T12:18:55.251Z,5.94
2023-01-06T12:19:55.255Z,6.39
2023-01-06T12:20:55.270Z,6.67
2023-01-06T12:21:55.257Z,6.67
2023-01-06T12:22:55.265Z,6.67
2023-01-06T12:23:55.274Z,7.39
2023-01-06T12:24:55.428Z,6.67
2023-01-06T12:25:55.261Z,6.78
2023-01-06T12:26:55.268Z,6.67
2023-01-06T12:27:55.261Z,7.22
2023-01-06T12:28:55.274Z,7.5
2023-01-06T12:29:55.269Z,7.11
2023-01-06T12:30:55.305Z,7.11
2023-01-06T12:31:55.277Z,7.5
2023-01-06T12:32:55.262Z,7.78
2023-01-06T12:33:55.274Z,7.67
2023-01-06T12:34:55.266Z,7.11
2023-01-06T12:35:55.286Z,6.67
2023-01-06T12:36:55.270Z,6.22
2023-01-06T12:37:55.266Z,6.67
2023-01-06T12:38:55.279Z,6.78
2023-01-06T12:39:55.266Z,6.78
2023-01-06T12:40:55.400Z,7.22
2023-01-06T12:41:55.283Z,7.39
2023-01-06T12:42:55.280Z,7.22
2023-01-06T12:43:55.274Z,7.39
2023-01-06T12:44:55.270Z,7.11
2023-01-06T12:45:57.586Z,7.11
2023-01-06T12:46:55.260Z,7.5
2023-01-06T12:47:55.297Z,7.5
2023-01-06T12:48:55.276Z,6.67
2023-01-06T12:49:55.294Z,6.67
2023-01-06T12:50:55.278Z,6.94
2023-01-06T12:51:55.269Z,7.11
2023-01-06T12:52:55.260Z,7.11
2023-01-06T12:53:56.333Z,7.5
2023-01-06T12:54:55.277Z,8.11
2023-01-06T12:55:55.275Z,8.39
2023-01-06T12:56:55.379Z,8.39
2023-01-06T12:57:55.291Z,8.11
2023-01-06T12:58:55.258Z,7.78
2023-01-06T12:59:55.312Z,7.78
2023-01-06T13:00:55.358Z,7.94
2023-01-06T13:01:55.438Z,8.39
2023-01-06T13:02:55.275Z,7.5
2023-01-06T13:03:55.403Z,7.94
2023-01-06T13:04:55.282Z,8.61
2023-01-06T13:05:55.284Z,8.39
2023-01-06T13:06:55.276Z,8.28
2023-01-06T13:07:55.263Z,8.78
2023-01-06T13:08:55.277Z,8.61
2023-01-06T13:09:55.264Z,8.78
2023-01-06T13:10:55.270Z,8.78
2023-01-06T13:11:55.282Z,8.78
2023-01-06T13:12:55.410Z,8.78
2023-01-06T13:14:19.440Z,8.78
2023-01-06T13:15:19.452Z,8.78
2023-01-06T13:16:19.527Z,8.39
2023-01-06T13:17:19.451Z,8.11
2023-01-06T13:18:19.455Z,8.11
2023-01-06T13:19:19.449Z,8.5
2023-01-06T13:20:19.476Z,8.39
2023-01-06T13:21:19.472Z,8.39
2023-01-06T13:22:19.464Z,8.39
2023-01-06T13:23:19.452Z,8.39
2023-01-06T13:24:19.451Z,8.28
2023-01-06T13:25:19.470Z,8.11
2023-01-06T13:26:19.467Z,7.94